sensor_id;sensor_type;location;lat;lon;timestamp;P1;durP1;ratioP1;P2;durP2;ratioP2
71902;SDS011;59778;50.310;18.780;2023-01-15T00:04:31;7.93;;;2.17;;
71902;SDS011;59778;50.310;18.780;2023-01-15T00:19:52;7.23;;;2.30;;
71902;SDS011;59778;50.310;18.780;2023-01-15T00:35:15;6.40;;;2.00;;
71902;SDS011;59778;50.310;18.780;2023-01-15T00:50:38;9.33;;;1.93;;
71902;SDS011;59778;50.310;18.780;2023-01-15T01:06:00;7.50;;;2.37;;
71902;SDS011;59778;50.310;18.780;2023-01-15T01:21:22;7.60;;;2.30;;
71902;SDS011;59778;50.310;18.780;2023-01-15T01:36:44;7.50;;;2.40;;
71902;SDS011;59778;50.310;18.780;2023-01-15T01:52:06;8.47;;;2.90;;
71902;SDS011;59778;50.310;18.780;2023-01-15T02:07:33;8.63;;;2.60;;
71902;SDS011;59778;50.310;18.780;2023-01-15T02:38:42;8.23;;;2.27;;
71902;SDS011;59778;50.310;18.780;2023-01-15T02:54:10;6.13;;;1.90;;
71902;SDS011;59778;50.310;18.780;2023-01-15T03:09:34;5.10;;;1.93;;
71902;SDS011;59778;50.310;18.780;2023-01-15T03:24:59;4.40;;;1.70;;
71902;SDS011;59778;50.310;18.780;2023-01-15T03:40:31;6.97;;;1.90;;
71902;SDS011;59778;50.310;18.780;2023-01-15T04:11:35;2.93;;;1.20;;
71902;SDS011;59778;50.310;18.780;2023-01-15T04:26:56;5.50;;;1.77;;
71902;SDS011;59778;50.310;18.780;2023-01-15T04:42:18;3.80;;;1.60;;
71902;SDS011;59778;50.310;18.780;2023-01-15T04:57:57;4.60;;;1.53;;
71902;SDS011;59778;50.310;18.780;2023-01-15T05:13:19;6.60;;;1.77;;
71902;SDS011;59778;50.310;18.780;2023-01-15T05:28:40;5.93;;;2.50;;
71902;SDS011;59778;50.310;18.780;2023-01-15T05:44:02;7.60;;;1.90;;
71902;SDS011;59778;50.310;18.780;2023-01-15T05:59:26;6.40;;;2.00;;
71902;SDS011;59778;50.310;18.780;2023-01-15T06:14:48;8.23;;;2.47;;
71902;SDS011;59778;50.310;18.780;2023-01-15T06:30:10;7.03;;;2.40;;
71902;SDS011;59778;50.310;18.780;2023-01-15T06:45:35;7.43;;;2.87;;
71902;SDS011;59778;50.310;18.780;2023-01-15T07:01:16;8.37;;;2.60;;
71902;SDS011;59778;50.310;18.780;2023-01-15T07:16:38;8.33;;;2.40;;
71902;SDS011;59778;50.310;18.780;2023-01-15T07:31:59;11.20;;;3.20;;
71902;SDS011;59778;50.310;18.780;2023-01-15T07:47:21;7.77;;;2.90;;
71902;SDS011;59778;50.310;18.780;2023-01-15T08:03:02;10.10;;;3.50;;
71902;SDS011;59778;50.310;18.780;2023-01-15T08:18:23;18.43;;;5.53;;
71902;SDS011;59778;50.310;18.780;2023-01-15T08:33:45;14.03;;;5.10;;
71902;SDS011;59778;50.310;18.780;2023-01-15T08:49:07;13.67;;;3.90;;
71902;SDS011;59778;50.310;18.780;2023-01-15T09:04:30;11.93;;;4.20;;
71902;SDS011;59778;50.310;18.780;2023-01-15T09:19:51;10.30;;;3.43;;
71902;SDS011;59778;50.310;18.780;2023-01-15T09:35:13;10.30;;;3.30;;
71902;SDS011;59778;50.310;18.780;2023-01-15T09:50:56;11.23;;;2.87;;
71902;SDS011;59778;50.310;18.780;2023-01-15T10:06:27;8.70;;;2.70;;
71902;SDS011;59778;50.310;18.780;2023-01-15T10:21:57;18.63;;;6.23;;
71902;SDS011;59778;50.310;18.780;2023-01-15T10:37:45;15.43;;;6.07;;
71902;SDS011;59778;50.310;18.780;2023-01-15T10:53:31;11.97;;;4.90;;
71902;SDS011;59778;50.310;18.780;2023-01-15T11:08:57;12.20;;;3.57;;
71902;SDS011;59778;50.310;18.780;2023-01-15T11:24:20;5.40;;;2.00;;
71902;SDS011;59778;50.310;18.780;2023-01-15T11:39:41;7.97;;;2.70;;
71902;SDS011;59778;50.310;18.780;2023-01-15T11:55:13;8.43;;;3.03;;
71902;SDS011;59778;50.310;18.780;2023-01-15T12:26:39;11.47;;;2.90;;
71902;SDS011;59778;50.310;18.780;2023-01-15T12:42:13;13.50;;;4.03;;
71902;SDS011;59778;50.310;18.780;2023-01-15T12:57:59;10.63;;;3.30;;
71902;SDS011;59778;50.310;18.780;2023-01-15T13:13:28;10.03;;;3.47;;
71902;SDS011;59778;50.310;18.780;2023-01-15T13:44:28;12.17;;;4.17;;
71902;SDS011;59778;50.310;18.780;2023-01-15T13:59:54;12.60;;;4.23;;
71902;SDS011;59778;50.310;18.780;2023-01-15T14:31:07;17.17;;;4.70;;
71902;SDS011;59778;50.310;18.780;2023-01-15T14:46:39;11.73;;;4.60;;
71902;SDS011;59778;50.310;18.780;2023-01-15T15:02:07;17.00;;;5.10;;
71902;SDS011;59778;50.310;18.780;2023-01-15T15:33:24;42.67;;;17.80;;
71902;SDS011;59778;50.310;18.780;2023-01-15T15:48:49;48.87;;;23.03;;
71902;SDS011;59778;50.310;18.780;2023-01-15T16:04:17;35.17;;;16.00;;
71902;SDS011;59778;50.310;18.780;2023-01-15T16:19:41;26.20;;;9.73;;
71902;SDS011;59778;50.310;18.780;2023-01-15T16:35:05;15.63;;;7.17;;
71902;SDS011;59778;50.310;18.780;2023-01-15T16:50:35;18.13;;;4.87;;
71902;SDS011;59778;50.310;18.780;2023-01-15T17:06:00;17.90;;;6.33;;
71902;SDS011;59778;50.310;18.780;2023-01-15T17:21:31;13.67;;;5.00;;
71902;SDS011;59778;50.310;18.780;2023-01-15T17:36:53;12.37;;;5.50;;
71902;SDS011;59778;50.310;18.780;2023-01-15T17:52:18;15.47;;;6.60;;
71902;SDS011;59778;50.310;18.780;2023-01-15T18:07:40;18.80;;;5.30;;
71902;SDS011;59778;50.310;18.780;2023-01-15T18:23:03;12.77;;;5.13;;
71902;SDS011;59778;50.310;18.780;2023-01-15T18:38:24;14.47;;;5.70;;
71902;SDS011;59778;50.310;18.780;2023-01-15T18:53:47;9.70;;;3.60;;
71902;SDS011;59778;50.310;18.780;2023-01-15T19:09:08;13.17;;;3.93;;
71902;SDS011;59778;50.310;18.780;2023-01-15T19:24:34;11.43;;;4.80;;
71902;SDS011;59778;50.310;18.780;2023-01-15T19:39:55;17.27;;;6.93;;
71902;SDS011;59778;50.310;18.780;2023-01-15T19:55:17;20.27;;;8.30;;
71902;SDS011;59778;50.310;18.780;2023-01-15T20:10:39;20.97;;;8.97;;
71902;SDS011;59778;50.310;18.780;2023-01-15T20:26:03;22.50;;;10.03;;
71902;SDS011;59778;50.310;18.780;2023-01-15T20:41:25;21.67;;;10.07;;
71902;SDS011;59778;50.310;18.780;2023-01-15T20:57:05;20.63;;;9.77;;
71902;SDS011;59778;50.310;18.780;2023-01-15T21:12:27;25.97;;;10.27;;
71902;SDS011;59778;50.310;18.780;2023-01-15T21:27:48;26.53;;;11.70;;
71902;SDS011;59778;50.310;18.780;2023-01-15T21:43:09;22.93;;;10.03;;
71902;SDS011;59778;50.310;18.780;2023-01-15T21:58:49;20.03;;;8.30;;
71902;SDS011;59778;50.310;18.780;2023-01-15T22:14:44;16.50;;;7.73;;
71902;SDS011;59778;50.310;18.780;2023-01-15T22:29:59;19.93;;;9.47;;
71902;SDS011;59778;50.310;18.780;2023-01-15T22:45:21;18.00;;;8.97;;
71902;SDS011;59778;50.310;18.780;2023-01-15T23:00:43;21.40;;;9.10;;
71902;SDS011;59778;50.310;18.780;2023-01-15T23:16:05;22.60;;;10.17;;
71902;SDS011;59778;50.310;18.780;2023-01-15T23:31:26;28.17;;;12.83;;
71902;SDS011;59778;50.310;18.780;2023-01-15T23:46:48;30.73;;;13.30;;
